createdAt,value
2019-05-22T00:02:31.976Z,13.68
2019-05-22T00:06:43.810Z,14.57
2019-05-22T00:10:49.732Z,17.30
2019-05-22T00:14:56.634Z,17.13
2019-05-22T00:19:03.480Z,19.10
2019-05-22T00:23:10.824Z,16.93
2019-05-22T00:27:17.998Z,15.80
2019-05-22T00:31:28.476Z,18.33
2019-05-22T00:35:37.038Z,16.00
2019-05-22T00:39:43.369Z,16.00
2019-05-22T00:43:51.610Z,17.77
2019-05-22T00:47:58.149Z,18.33
2019-05-22T00:52:20.637Z,19.20
2019-05-22T00:56:32.754Z,23.50
2019-05-22T01:00:44.842Z,19.73
2019-05-22T01:04:52.120Z,20.27
2019-05-22T01:09:05.775Z,21.37
2019-05-22T01:13:12.051Z,21.20
2019-05-22T01:17:19.956Z,21.70
2019-05-22T01:21:26.322Z,19.90
2019-05-22T01:25:34.457Z,19.90
2019-05-22T01:29:41.830Z,20.73
2019-05-22T01:33:52.486Z,20.40
2019-05-22T01:37:59.875Z,22.20
2019-05-22T01:42:10.538Z,25.10
2019-05-22T01:46:17.117Z,25.50
2019-05-22T01:50:50.042Z,22.80
2019-05-22T01:54:58.600Z,22.07
2019-05-22T01:59:05.444Z,25.10
2019-05-22T02:03:14.723Z,24.33
2019-05-22T02:07:20.814Z,22.27
2019-05-22T02:11:28.296Z,25.43
2019-05-22T02:15:35.927Z,22.87
2019-05-22T02:19:41.917Z,23.23
2019-05-22T02:23:48.750Z,24.63
2019-05-22T02:27:56.714Z,20.83
2019-05-22T02:32:04.286Z,24.00
2019-05-22T02:36:12.051Z,23.13
2019-05-22T02:40:26.135Z,23.83
2019-05-22T02:44:32.633Z,23.73
2019-05-22T02:48:42.477Z,22.00
2019-05-22T02:52:50.845Z,23.37
2019-05-22T02:56:57.206Z,22.60
2019-05-22T03:01:05.695Z,23.73
2019-05-22T03:05:13.278Z,24.97
2019-05-22T03:09:23.730Z,23.17
2019-05-22T03:14:01.172Z,23.10
2019-05-22T03:18:11.080Z,23.03
2019-05-22T03:22:34.677Z,25.43
2019-05-22T03:26:48.635Z,22.60
2019-05-22T03:30:55.602Z,23.67
2019-05-22T03:35:01.370Z,24.00
2019-05-22T03:39:12.087Z,23.90
2019-05-22T03:43:25.830Z,26.33
2019-05-22T03:47:32.450Z,24.60
2019-05-22T03:51:38.352Z,24.40
2019-05-22T03:55:45.174Z,26.63
2019-05-22T03:59:51.203Z,25.87
2019-05-22T04:03:58.590Z,24.77
2019-05-22T04:08:06.184Z,21.17
2019-05-22T04:12:13.493Z,25.10
2019-05-22T04:16:28.810Z,22.00
2019-05-22T04:20:35.169Z,21.90
2019-05-22T04:24:41.486Z,23.83
2019-05-22T04:28:52.136Z,23.40
2019-05-22T04:32:58.525Z,23.90
2019-05-22T04:37:05.531Z,23.63
2019-05-22T04:41:15.106Z,22.83
2019-05-22T04:45:21.882Z,23.67
2019-05-22T04:49:27.849Z,23.07
2019-05-22T04:53:34.146Z,21.30
2019-05-22T04:57:41.009Z,20.70
2019-05-22T05:01:48.372Z,25.23
2019-05-22T05:05:56.127Z,20.30
2019-05-22T05:10:02.057Z,22.83
2019-05-22T05:14:07.906Z,20.53
2019-05-22T05:18:14.638Z,23.50
2019-05-22T05:22:30.794Z,21.37
2019-05-22T05:26:38.548Z,21.57
2019-05-22T05:30:44.431Z,21.27
2019-05-22T05:34:54.837Z,21.20
2019-05-22T05:39:01.653Z,20.77
2019-05-22T05:43:09.994Z,22.77
2019-05-22T05:47:16.188Z,20.13
2019-05-22T05:51:25.651Z,20.80
2019-05-22T05:55:48.313Z,23.80
2019-05-22T05:59:55.015Z,20.90
2019-05-22T06:04:03.285Z,21.57
2019-05-22T06:08:09.524Z,22.97
2019-05-22T06:12:15.881Z,20.50
2019-05-22T06:16:26.645Z,20.07
2019-05-22T06:20:33.242Z,20.47
2019-05-22T06:24:52.417Z,21.10
2019-05-22T06:28:58.549Z,23.47
2019-05-22T06:33:13.574Z,24.67
2019-05-22T06:37:47.534Z,22.87
2019-05-22T06:41:54.353Z,20.23
2019-05-22T06:46:00.193Z,22.50
2019-05-22T06:50:08.328Z,20.33
2019-05-22T06:54:14.114Z,20.03
2019-05-22T06:58:20.245Z,19.53
2019-05-22T07:02:26.750Z,14.13
2019-05-22T07:06:34.201Z,17.27
2019-05-22T07:10:41.405Z,16.80
2019-05-22T07:14:57.847Z,20.17
2019-05-22T07:19:07.281Z,17.07
2019-05-22T07:23:15.056Z,17.17
2019-05-22T07:27:25.930Z,17.57
2019-05-22T07:31:32.158Z,19.00
2019-05-22T07:35:56.353Z,16.20
2019-05-22T07:39:47.667Z,17.83
2019-05-22T07:43:53.661Z,17.97
2019-05-22T07:48:01.027Z,15.07
2019-05-22T07:52:08.115Z,16.90
2019-05-22T07:56:16.213Z,18.23
2019-05-22T08:00:23.113Z,16.50
2019-05-22T08:04:31.723Z,16.57
2019-05-22T08:08:39.918Z,15.97
2019-05-22T08:12:45.683Z,16.63
2019-05-22T08:16:52.636Z,12.17
2019-05-22T08:21:00.175Z,18.57
2019-05-22T08:25:08.937Z,20.70
2019-05-22T08:29:17.070Z,14.93
2019-05-22T08:33:25.039Z,16.25
2019-05-22T08:41:41.467Z,16.00
2019-05-22T08:45:47.364Z,16.30
2019-05-22T08:49:54.054Z,15.27
2019-05-22T08:54:00.827Z,14.40
2019-05-22T08:58:07.730Z,15.37
2019-05-22T09:02:15.077Z,15.00
2019-05-22T09:06:21.195Z,13.63
2019-05-22T09:10:27.087Z,13.30
2019-05-22T09:14:32.898Z,12.00
2019-05-22T09:18:39.041Z,9.73
2019-05-22T09:22:47.097Z,11.90
2019-05-22T09:26:53.166Z,9.87
2019-05-22T09:30:59.842Z,10.17
2019-05-22T09:35:09.901Z,11.93
2019-05-22T09:39:16.097Z,9.47
2019-05-22T09:43:22.321Z,9.57
2019-05-22T09:47:29.272Z,9.33
2019-05-22T09:51:35.051Z,7.93
2019-05-22T09:55:40.775Z,9.17
2019-05-22T09:59:46.721Z,9.93
2019-05-22T10:03:53.544Z,10.10
2019-05-22T10:08:02.117Z,9.37
2019-05-22T10:12:08.986Z,7.73
2019-05-22T10:16:15.805Z,8.90
2019-05-22T10:20:22.976Z,8.27
2019-05-22T10:24:29.188Z,7.40
2019-05-22T10:28:35.993Z,7.80
2019-05-22T10:32:41.961Z,7.47
2019-05-22T10:36:48.154Z,7.13
2019-05-22T10:40:58.530Z,5.60
2019-05-22T10:45:02.293Z,7.10
2019-05-22T10:49:08.214Z,7.63
2019-05-22T10:53:30.582Z,8.30
2019-05-22T10:57:23.450Z,7.03
2019-05-22T11:01:30.753Z,8.90
2019-05-22T11:05:37.368Z,6.00
2019-05-22T11:09:44.615Z,7.33
2019-05-22T11:14:00.614Z,7.00
2019-05-22T11:17:58.781Z,5.97
2019-05-22T11:22:06.418Z,7.43
2019-05-22T11:26:15.415Z,6.80
2019-05-22T11:30:22.990Z,8.80
2019-05-22T11:34:29.601Z,6.70
2019-05-22T11:38:35.503Z,6.77
2019-05-22T11:42:41.763Z,7.03
2019-05-22T11:46:50.158Z,6.80
2019-05-22T11:51:01.070Z,6.43
2019-05-22T11:55:09.305Z,6.93
2019-05-22T11:59:16.403Z,7.10
2019-05-22T12:03:24.756Z,7.63
2019-05-22T12:07:30.523Z,6.73
2019-05-22T12:11:36.869Z,8.50
2019-05-22T12:15:42.889Z,7.00
2019-05-22T12:19:49.081Z,6.57
2019-05-22T12:23:55.204Z,6.87
2019-05-22T12:28:01.464Z,7.13
2019-05-22T12:32:09.560Z,7.57
2019-05-22T12:36:15.722Z,8.20
2019-05-22T12:40:25.709Z,12.30
2019-05-22T12:44:31.569Z,9.47
2019-05-22T12:48:42.798Z,7.07
2019-05-22T12:52:50.643Z,8.03
2019-05-22T12:56:56.740Z,6.30
2019-05-22T13:01:03.579Z,7.20
2019-05-22T13:05:14.298Z,7.27
2019-05-22T13:09:18.324Z,6.23
2019-05-22T13:13:24.562Z,6.83
2019-05-22T13:17:33.296Z,6.10
2019-05-22T13:21:40.576Z,6.80
2019-05-22T13:25:47.296Z,6.20
2019-05-22T13:29:55.329Z,6.47
2019-05-22T13:34:03.314Z,5.53
2019-05-22T13:38:09.610Z,5.80
2019-05-22T13:42:15.549Z,6.00
2019-05-22T13:46:21.488Z,5.60
2019-05-22T13:50:28.995Z,5.63
2019-05-22T13:54:35.949Z,6.43
2019-05-22T13:58:42.564Z,7.27
2019-05-22T14:02:48.869Z,5.90
2019-05-22T14:06:54.878Z,5.30
2019-05-22T14:11:00.825Z,6.00
2019-05-22T14:15:11.610Z,5.83
2019-05-22T14:19:18.164Z,5.77
2019-05-22T14:23:24.520Z,4.50
2019-05-22T14:27:30.458Z,5.53
2019-05-22T14:31:37.380Z,5.50
2019-05-22T14:35:48.823Z,5.07
2019-05-22T14:39:52.121Z,5.90
2019-05-22T14:43:58.410Z,5.17
2019-05-22T14:48:04.898Z,8.03
2019-05-22T14:52:11.538Z,5.60
2019-05-22T14:56:18.539Z,4.90
2019-05-22T15:00:24.758Z,5.60
2019-05-22T15:04:32.103Z,4.17
2019-05-22T15:08:38.014Z,4.07
2019-05-22T15:12:43.976Z,4.60
2019-05-22T15:16:49.988Z,4.83
2019-05-22T15:21:02.420Z,4.83
2019-05-22T15:25:10.015Z,6.00
2019-05-22T15:29:16.339Z,4.30
2019-05-22T15:33:22.917Z,3.83
2019-05-22T15:37:29.732Z,3.73
2019-05-22T15:41:38.182Z,4.73
2019-05-22T15:45:45.324Z,11.87
2019-05-22T15:49:51.038Z,131.63
2019-05-22T15:54:00.695Z,25.37
2019-05-22T15:58:07.889Z,4.70
2019-05-22T16:02:16.407Z,23.37
2019-05-22T16:06:26.366Z,109.13
2019-05-22T16:10:32.254Z,7.90
2019-05-22T16:14:39.253Z,239.90
2019-05-22T16:18:49.281Z,91.90
2019-05-22T16:22:56.050Z,178.07
2019-05-22T16:27:02.325Z,123.80
2019-05-22T16:31:10.504Z,5.40
2019-05-22T16:35:16.807Z,5.03
2019-05-22T16:39:23.929Z,21.90
2019-05-22T16:43:47.354Z,707.43
2019-05-22T16:47:38.309Z,873.73
2019-05-22T16:51:46.469Z,461.37
2019-05-22T16:55:52.244Z,86.90
2019-05-22T16:59:58.750Z,5.67
2019-05-22T17:04:06.215Z,4.90
2019-05-22T17:08:13.571Z,4.83
2019-05-22T17:12:20.379Z,9.43
2019-05-22T17:16:27.371Z,155.73
2019-05-22T17:20:33.928Z,332.67
2019-05-22T17:24:40.218Z,26.07
2019-05-22T17:28:46.901Z,5.60
2019-05-22T17:32:53.191Z,87.70
2019-05-22T17:37:00.465Z,153.37
2019-05-22T17:41:08.407Z,5.10
2019-05-22T17:45:18.037Z,7.83
2019-05-22T17:49:24.598Z,38.67
2019-05-22T17:53:30.925Z,52.43
2019-05-22T17:57:37.734Z,11.57
2019-05-22T18:01:43.844Z,29.48
2019-05-22T18:05:50.239Z,401.67
2019-05-22T18:09:56.470Z,12.60
2019-05-22T18:14:04.675Z,11.87
2019-05-22T18:18:11.282Z,60.60
2019-05-22T18:22:17.133Z,12.67
2019-05-22T18:26:23.410Z,5.63
2019-05-22T18:30:30.828Z,21.65
2019-05-22T18:34:36.589Z,5.97
2019-05-22T18:38:42.342Z,5.67
2019-05-22T18:42:48.902Z,5.40
2019-05-22T18:46:54.854Z,21.23
2019-05-22T18:51:01.084Z,5.47
2019-05-22T18:55:07.949Z,4.53
2019-05-22T18:59:13.813Z,8.07
2019-05-22T19:03:19.754Z,6.87
2019-05-22T19:07:25.584Z,6.17
2019-05-22T19:11:31.422Z,15.43
2019-05-22T19:15:37.580Z,5.27
2019-05-22T19:19:52.955Z,7.90
2019-05-22T19:23:58.956Z,6.60
2019-05-22T19:28:05.102Z,4.70
2019-05-22T19:32:11.002Z,5.13
2019-05-22T19:36:16.763Z,5.90
2019-05-22T19:40:25.580Z,5.40
2019-05-22T19:44:32.154Z,5.30
2019-05-22T19:48:38.008Z,6.60
2019-05-22T19:52:44.745Z,5.50
2019-05-22T19:56:51.993Z,6.07
2019-05-22T20:00:57.878Z,5.53
2019-05-22T20:05:06.901Z,7.40
2019-05-22T20:09:13.360Z,6.40
2019-05-22T20:13:22.014Z,6.83
2019-05-22T20:17:28.196Z,10.17
2019-05-22T20:21:34.763Z,8.90
2019-05-22T20:25:43.477Z,8.07
2019-05-22T20:29:49.830Z,9.33
2019-05-22T20:33:55.771Z,7.87
2019-05-22T20:38:02.175Z,8.13
2019-05-22T20:42:09.488Z,7.53
2019-05-22T20:46:18.667Z,7.00
2019-05-22T20:50:26.138Z,9.17
2019-05-22T20:54:32.720Z,7.40
2019-05-22T20:58:40.190Z,8.37
2019-05-22T21:02:46.781Z,7.90
2019-05-22T21:07:00.505Z,10.10
2019-05-22T21:11:08.793Z,8.10
2019-05-22T21:15:16.094Z,8.93
2019-05-22T21:19:24.152Z,8.77
2019-05-22T21:23:31.179Z,9.23
2019-05-22T21:27:38.488Z,9.63
2019-05-22T21:31:47.475Z,8.13
2019-05-22T21:35:52.891Z,10.50
2019-05-22T21:39:59.274Z,9.80
2019-05-22T21:44:05.313Z,10.57
2019-05-22T21:52:19.028Z,10.60
2019-05-22T21:56:25.161Z,11.07
2019-05-22T22:00:39.587Z,16.50
2019-05-22T22:04:46.760Z,8.20
2019-05-22T22:08:53.833Z,9.57
2019-05-22T22:12:59.802Z,9.57
2019-05-22T22:17:07.653Z,9.87
2019-05-22T22:21:15.359Z,11.33
2019-05-22T22:25:23.991Z,13.47
2019-05-22T22:29:30.306Z,10.50
2019-05-22T22:33:40.017Z,12.47
2019-05-22T22:37:46.596Z,10.73
2019-05-22T22:41:54.075Z,13.10
2019-05-22T22:46:22.959Z,11.17
2019-05-22T22:50:31.176Z,10.17
2019-05-22T22:54:37.807Z,11.73
2019-05-22T22:58:44.790Z,10.87
2019-05-22T23:02:51.869Z,10.18
2019-05-22T23:07:02.518Z,11.00
2019-05-22T23:11:09.201Z,11.83
2019-05-22T23:15:18.475Z,9.87
2019-05-22T23:19:35.137Z,11.40
2019-05-22T23:23:40.917Z,10.33
2019-05-22T23:27:47.329Z,10.53
2019-05-22T23:31:55.170Z,10.33
2019-05-22T23:36:01.807Z,13.20
2019-05-22T23:40:08.992Z,15.30
2019-05-22T23:44:19.516Z,12.40
2019-05-22T23:48:27.595Z,12.20
2019-05-22T23:52:33.788Z,10.20
2019-05-22T23:56:41.664Z,10.30
